sensor_id;sensor_type;location;lat;lon;timestamp;P1;durP1;ratioP1;P2;durP2;ratioP2
15393;SDS011;7795;47.986;11.868;2022-10-31T00:00:48;4.57;;;1.97;;
15393;SDS011;7795;47.986;11.868;2022-10-31T00:03:14;1.87;;;1.67;;
15393;SDS011;7795;47.986;11.868;2022-10-31T00:05:41;2.73;;;1.63;;
15393;SDS011;7795;47.986;11.868;2022-10-31T00:08:07;4.67;;;2.13;;
15393;SDS011;7795;47.986;11.868;2022-10-31T00:10:37;6.13;;;2.60;;
15393;SDS011;7795;47.986;11.868;2022-10-31T00:13:03;3.37;;;2.33;;
15393;SDS011;7795;47.986;11.868;2022-10-31T00:15:31;3.87;;;2.30;;
15393;SDS011;7795;47.986;11.868;2022-10-31T00:17:58;3.00;;;1.83;;
15393;SDS011;7795;47.986;11.868;2022-10-31T00:20:23;2.77;;;2.27;;
15393;SDS011;7795;47.986;11.868;2022-10-31T00:22:49;2.97;;;2.13;;
15393;SDS011;7795;47.986;11.868;2022-10-31T00:25:15;1.77;;;1.10;;
15393;SDS011;7795;47.986;11.868;2022-10-31T00:27:40;1.70;;;1.27;;
15393;SDS011;7795;47.986;11.868;2022-10-31T00:30:07;1.40;;;1.30;;
15393;SDS011;7795;47.986;11.868;2022-10-31T00:32:34;2.13;;;1.67;;
15393;SDS011;7795;47.986;11.868;2022-10-31T00:35:00;1.53;;;1.23;;
15393;SDS011;7795;47.986;11.868;2022-10-31T00:37:26;1.60;;;1.50;;
15393;SDS011;7795;47.986;11.868;2022-10-31T00:39:52;2.53;;;1.20;;
15393;SDS011;7795;47.986;11.868;2022-10-31T00:42:18;1.83;;;1.70;;
15393;SDS011;7795;47.986;11.868;2022-10-31T00:44:43;2.03;;;1.37;;
15393;SDS011;7795;47.986;11.868;2022-10-31T00:47:09;2.00;;;1.17;;
15393;SDS011;7795;47.986;11.868;2022-10-31T00:49:36;2.37;;;1.57;;
15393;SDS011;7795;47.986;11.868;2022-10-31T00:52:02;2.10;;;1.70;;
15393;SDS011;7795;47.986;11.868;2022-10-31T00:54:27;2.47;;;1.90;;
15393;SDS011;7795;47.986;11.868;2022-10-31T00:56:55;3.33;;;2.43;;
15393;SDS011;7795;47.986;11.868;2022-10-31T00:59:21;3.07;;;2.83;;
15393;SDS011;7795;47.986;11.868;2022-10-31T01:01:47;5.37;;;3.77;;
15393;SDS011;7795;47.986;11.868;2022-10-31T01:04:13;4.20;;;3.90;;
15393;SDS011;7795;47.986;11.868;2022-10-31T01:06:40;3.10;;;2.77;;
15393;SDS011;7795;47.986;11.868;2022-10-31T01:09:06;2.87;;;2.60;;
15393;SDS011;7795;47.986;11.868;2022-10-31T01:11:32;3.20;;;2.90;;
15393;SDS011;7795;47.986;11.868;2022-10-31T01:13:58;4.73;;;2.80;;
15393;SDS011;7795;47.986;11.868;2022-10-31T01:16:24;4.40;;;3.83;;
15393;SDS011;7795;47.986;11.868;2022-10-31T01:18:51;4.53;;;4.13;;
15393;SDS011;7795;47.986;11.868;2022-10-31T01:21:18;6.83;;;3.50;;
15393;SDS011;7795;47.986;11.868;2022-10-31T01:23:47;4.43;;;3.20;;
15393;SDS011;7795;47.986;11.868;2022-10-31T01:26:13;2.33;;;2.10;;
15393;SDS011;7795;47.986;11.868;2022-10-31T01:28:43;2.33;;;2.13;;
15393;SDS011;7795;47.986;11.868;2022-10-31T01:31:10;2.27;;;1.97;;
15393;SDS011;7795;47.986;11.868;2022-10-31T01:33:36;2.23;;;2.00;;
15393;SDS011;7795;47.986;11.868;2022-10-31T01:36:10;2.43;;;1.70;;
15393;SDS011;7795;47.986;11.868;2022-10-31T01:38:37;3.77;;;2.00;;
15393;SDS011;7795;47.986;11.868;2022-10-31T01:41:04;2.17;;;1.80;;
15393;SDS011;7795;47.986;11.868;2022-10-31T01:43:41;2.00;;;1.80;;
15393;SDS011;7795;47.986;11.868;2022-10-31T01:46:08;2.10;;;1.90;;
15393;SDS011;7795;47.986;11.868;2022-10-31T01:48:34;2.43;;;1.83;;
15393;SDS011;7795;47.986;11.868;2022-10-31T01:51:00;1.93;;;1.63;;
15393;SDS011;7795;47.986;11.868;2022-10-31T01:53:28;3.20;;;2.00;;
15393;SDS011;7795;47.986;11.868;2022-10-31T01:55:54;1.90;;;1.77;;
15393;SDS011;7795;47.986;11.868;2022-10-31T01:58:22;2.40;;;1.87;;
15393;SDS011;7795;47.986;11.868;2022-10-31T02:00:51;3.17;;;2.40;;
15393;SDS011;7795;47.986;11.868;2022-10-31T02:03:18;2.87;;;2.07;;
15393;SDS011;7795;47.986;11.868;2022-10-31T02:05:46;1.90;;;1.70;;
15393;SDS011;7795;47.986;11.868;2022-10-31T02:08:14;3.80;;;1.80;;
15393;SDS011;7795;47.986;11.868;2022-10-31T02:10:43;2.13;;;1.70;;
15393;SDS011;7795;47.986;11.868;2022-10-31T02:13:09;2.63;;;1.60;;
15393;SDS011;7795;47.986;11.868;2022-10-31T02:15:39;1.87;;;1.30;;
15393;SDS011;7795;47.986;11.868;2022-10-31T02:18:05;1.03;;;0.93;;
15393;SDS011;7795;47.986;11.868;2022-10-31T02:20:35;2.10;;;1.50;;
15393;SDS011;7795;47.986;11.868;2022-10-31T02:23:17;1.10;;;1.00;;
15393;SDS011;7795;47.986;11.868;2022-10-31T02:26:02;0.90;;;0.90;;
15393;SDS011;7795;47.986;11.868;2022-10-31T02:28:59;2.03;;;1.20;;
15393;SDS011;7795;47.986;11.868;2022-10-31T02:31:40;1.20;;;1.10;;
15393;SDS011;7795;47.986;11.868;2022-10-31T02:34:12;1.23;;;1.10;;
15393;SDS011;7795;47.986;11.868;2022-10-31T02:36:45;1.87;;;1.20;;
15393;SDS011;7795;47.986;11.868;2022-10-31T02:39:18;0.90;;;0.90;;
15393;SDS011;7795;47.986;11.868;2022-10-31T02:41:50;1.43;;;1.00;;
15393;SDS011;7795;47.986;11.868;2022-10-31T02:44:28;1.33;;;1.13;;
15393;SDS011;7795;47.986;11.868;2022-10-31T02:47:02;2.17;;;1.50;;
15393;SDS011;7795;47.986;11.868;2022-10-31T02:49:31;2.97;;;1.77;;
15393;SDS011;7795;47.986;11.868;2022-10-31T02:52:00;1.73;;;1.50;;
15393;SDS011;7795;47.986;11.868;2022-10-31T02:54:27;4.63;;;2.13;;
15393;SDS011;7795;47.986;11.868;2022-10-31T02:56:54;3.43;;;2.20;;
15393;SDS011;7795;47.986;11.868;2022-10-31T02:59:24;2.23;;;1.60;;
15393;SDS011;7795;47.986;11.868;2022-10-31T03:01:54;2.73;;;1.50;;
15393;SDS011;7795;47.986;11.868;2022-10-31T03:07:23;2.53;;;1.37;;
15393;SDS011;7795;47.986;11.868;2022-10-31T03:09:59;2.07;;;1.30;;
15393;SDS011;7795;47.986;11.868;2022-10-31T03:12:29;2.50;;;1.90;;
15393;SDS011;7795;47.986;11.868;2022-10-31T03:15:05;3.10;;;1.60;;
15393;SDS011;7795;47.986;11.868;2022-10-31T03:17:41;1.90;;;1.47;;
15393;SDS011;7795;47.986;11.868;2022-10-31T03:20:15;2.30;;;1.67;;
15393;SDS011;7795;47.986;11.868;2022-10-31T03:22:44;3.23;;;2.13;;
15393;SDS011;7795;47.986;11.868;2022-10-31T03:25:11;2.73;;;1.63;;
15393;SDS011;7795;47.986;11.868;2022-10-31T03:27:38;4.00;;;2.73;;
15393;SDS011;7795;47.986;11.868;2022-10-31T03:30:07;4.37;;;2.57;;
15393;SDS011;7795;47.986;11.868;2022-10-31T03:32:34;2.03;;;1.80;;
15393;SDS011;7795;47.986;11.868;2022-10-31T03:35:08;4.40;;;2.17;;
15393;SDS011;7795;47.986;11.868;2022-10-31T03:37:35;2.87;;;1.63;;
15393;SDS011;7795;47.986;11.868;2022-10-31T03:40:03;3.10;;;1.70;;
15393;SDS011;7795;47.986;11.868;2022-10-31T03:42:33;9.33;;;2.23;;
15393;SDS011;7795;47.986;11.868;2022-10-31T03:45:04;4.07;;;1.23;;
15393;SDS011;7795;47.986;11.868;2022-10-31T03:47:34;1.57;;;1.40;;
15393;SDS011;7795;47.986;11.868;2022-10-31T03:50:03;2.50;;;1.47;;
15393;SDS011;7795;47.986;11.868;2022-10-31T03:52:32;2.13;;;1.67;;
15393;SDS011;7795;47.986;11.868;2022-10-31T03:55:03;1.80;;;1.30;;
15393;SDS011;7795;47.986;11.868;2022-10-31T03:57:33;1.73;;;1.17;;
15393;SDS011;7795;47.986;11.868;2022-10-31T04:00:04;2.83;;;2.03;;
15393;SDS011;7795;47.986;11.868;2022-10-31T04:02:32;3.60;;;1.67;;
15393;SDS011;7795;47.986;11.868;2022-10-31T04:05:03;1.77;;;1.00;;
15393;SDS011;7795;47.986;11.868;2022-10-31T04:07:32;1.20;;;1.10;;
15393;SDS011;7795;47.986;11.868;2022-10-31T04:10:02;1.80;;;1.13;;
15393;SDS011;7795;47.986;11.868;2022-10-31T04:12:31;1.67;;;0.90;;
15393;SDS011;7795;47.986;11.868;2022-10-31T04:14:59;1.97;;;0.90;;
15393;SDS011;7795;47.986;11.868;2022-10-31T04:17:29;4.50;;;1.03;;
15393;SDS011;7795;47.986;11.868;2022-10-31T04:19:58;1.47;;;0.97;;
15393;SDS011;7795;47.986;11.868;2022-10-31T04:22:25;1.47;;;1.10;;
15393;SDS011;7795;47.986;11.868;2022-10-31T04:24:52;1.70;;;1.60;;
15393;SDS011;7795;47.986;11.868;2022-10-31T04:27:18;3.07;;;1.30;;
15393;SDS011;7795;47.986;11.868;2022-10-31T04:29:43;3.80;;;1.17;;
15393;SDS011;7795;47.986;11.868;2022-10-31T04:32:09;2.37;;;1.30;;
15393;SDS011;7795;47.986;11.868;2022-10-31T04:34:35;2.83;;;1.20;;
15393;SDS011;7795;47.986;11.868;2022-10-31T04:37:00;1.97;;;1.10;;
15393;SDS011;7795;47.986;11.868;2022-10-31T04:39:26;3.50;;;1.20;;
15393;SDS011;7795;47.986;11.868;2022-10-31T04:41:53;3.13;;;1.57;;
15393;SDS011;7795;47.986;11.868;2022-10-31T04:44:19;2.83;;;1.40;;
15393;SDS011;7795;47.986;11.868;2022-10-31T04:46:45;1.63;;;0.90;;
15393;SDS011;7795;47.986;11.868;2022-10-31T04:49:10;3.00;;;1.20;;
15393;SDS011;7795;47.986;11.868;2022-10-31T04:51:36;3.40;;;1.30;;
15393;SDS011;7795;47.986;11.868;2022-10-31T04:54:02;3.67;;;1.50;;
15393;SDS011;7795;47.986;11.868;2022-10-31T04:56:28;1.70;;;1.43;;
15393;SDS011;7795;47.986;11.868;2022-10-31T04:58:55;2.57;;;1.47;;
15393;SDS011;7795;47.986;11.868;2022-10-31T05:01:21;1.97;;;1.40;;
15393;SDS011;7795;47.986;11.868;2022-10-31T05:03:47;1.37;;;1.10;;
15393;SDS011;7795;47.986;11.868;2022-10-31T05:06:12;1.93;;;1.07;;
15393;SDS011;7795;47.986;11.868;2022-10-31T05:08:38;3.03;;;1.60;;
15393;SDS011;7795;47.986;11.868;2022-10-31T05:11:04;2.70;;;1.20;;
15393;SDS011;7795;47.986;11.868;2022-10-31T05:13:30;1.40;;;1.20;;
15393;SDS011;7795;47.986;11.868;2022-10-31T05:15:57;1.37;;;1.27;;
15393;SDS011;7795;47.986;11.868;2022-10-31T05:18:24;2.93;;;1.47;;
15393;SDS011;7795;47.986;11.868;2022-10-31T05:20:50;2.90;;;1.63;;
15393;SDS011;7795;47.986;11.868;2022-10-31T05:23:15;1.67;;;1.00;;
15393;SDS011;7795;47.986;11.868;2022-10-31T05:25:41;1.87;;;1.40;;
15393;SDS011;7795;47.986;11.868;2022-10-31T05:28:07;2.10;;;1.03;;
15393;SDS011;7795;47.986;11.868;2022-10-31T05:30:33;8.67;;;2.40;;
15393;SDS011;7795;47.986;11.868;2022-10-31T05:33:00;10.23;;;2.17;;
15393;SDS011;7795;47.986;11.868;2022-10-31T05:35:26;1.87;;;1.17;;
15393;SDS011;7795;47.986;11.868;2022-10-31T05:37:53;2.33;;;1.30;;
15393;SDS011;7795;47.986;11.868;2022-10-31T05:40:19;1.70;;;1.00;;
15393;SDS011;7795;47.986;11.868;2022-10-31T05:42:46;1.20;;;1.10;;
15393;SDS011;7795;47.986;11.868;2022-10-31T05:45:13;5.27;;;1.60;;
15393;SDS011;7795;47.986;11.868;2022-10-31T05:47:40;1.90;;;1.60;;
15393;SDS011;7795;47.986;11.868;2022-10-31T05:50:08;1.63;;;1.10;;
15393;SDS011;7795;47.986;11.868;2022-10-31T05:52:35;1.30;;;1.13;;
15393;SDS011;7795;47.986;11.868;2022-10-31T05:55:00;4.70;;;1.40;;
15393;SDS011;7795;47.986;11.868;2022-10-31T05:57:26;2.67;;;1.10;;
15393;SDS011;7795;47.986;11.868;2022-10-31T05:59:54;2.30;;;1.43;;
15393;SDS011;7795;47.986;11.868;2022-10-31T06:02:20;2.77;;;1.20;;
15393;SDS011;7795;47.986;11.868;2022-10-31T06:04:46;2.30;;;1.57;;
15393;SDS011;7795;47.986;11.868;2022-10-31T06:07:13;3.63;;;1.80;;
15393;SDS011;7795;47.986;11.868;2022-10-31T06:09:39;4.77;;;2.00;;
15393;SDS011;7795;47.986;11.868;2022-10-31T06:12:04;5.50;;;2.20;;
15393;SDS011;7795;47.986;11.868;2022-10-31T06:14:30;1.83;;;1.63;;
15393;SDS011;7795;47.986;11.868;2022-10-31T06:16:56;4.87;;;1.97;;
15393;SDS011;7795;47.986;11.868;2022-10-31T06:19:22;2.97;;;2.03;;
15393;SDS011;7795;47.986;11.868;2022-10-31T06:21:47;2.20;;;1.90;;
15393;SDS011;7795;47.986;11.868;2022-10-31T06:24:14;3.63;;;1.30;;
15393;SDS011;7795;47.986;11.868;2022-10-31T06:26:40;2.87;;;1.50;;
15393;SDS011;7795;47.986;11.868;2022-10-31T06:29:06;7.73;;;2.07;;
15393;SDS011;7795;47.986;11.868;2022-10-31T06:31:32;2.63;;;1.83;;
15393;SDS011;7795;47.986;11.868;2022-10-31T06:33:58;3.87;;;2.50;;
15393;SDS011;7795;47.986;11.868;2022-10-31T06:36:23;6.43;;;2.20;;
15393;SDS011;7795;47.986;11.868;2022-10-31T06:38:49;5.23;;;1.90;;
15393;SDS011;7795;47.986;11.868;2022-10-31T06:41:16;6.80;;;1.70;;
15393;SDS011;7795;47.986;11.868;2022-10-31T06:43:42;5.40;;;1.87;;
15393;SDS011;7795;47.986;11.868;2022-10-31T06:46:10;3.87;;;1.67;;
15393;SDS011;7795;47.986;11.868;2022-10-31T06:48:36;1.90;;;1.30;;
15393;SDS011;7795;47.986;11.868;2022-10-31T06:51:02;3.73;;;1.60;;
15393;SDS011;7795;47.986;11.868;2022-10-31T06:53:28;4.13;;;1.50;;
15393;SDS011;7795;47.986;11.868;2022-10-31T06:55:54;5.87;;;2.07;;
15393;SDS011;7795;47.986;11.868;2022-10-31T06:58:21;1.73;;;1.50;;
15393;SDS011;7795;47.986;11.868;2022-10-31T07:00:47;6.57;;;2.10;;
15393;SDS011;7795;47.986;11.868;2022-10-31T07:03:14;2.70;;;1.80;;
15393;SDS011;7795;47.986;11.868;2022-10-31T07:05:40;6.30;;;2.40;;
15393;SDS011;7795;47.986;11.868;2022-10-31T07:08:07;3.33;;;1.60;;
15393;SDS011;7795;47.986;11.868;2022-10-31T07:10:35;9.57;;;1.87;;
15393;SDS011;7795;47.986;11.868;2022-10-31T07:13:02;6.37;;;2.67;;
15393;SDS011;7795;47.986;11.868;2022-10-31T07:15:32;5.10;;;2.10;;
15393;SDS011;7795;47.986;11.868;2022-10-31T07:17:59;3.40;;;1.90;;
15393;SDS011;7795;47.986;11.868;2022-10-31T07:20:28;3.60;;;1.77;;
15393;SDS011;7795;47.986;11.868;2022-10-31T07:22:54;1.73;;;1.40;;
15393;SDS011;7795;47.986;11.868;2022-10-31T07:25:20;3.87;;;1.90;;
15393;SDS011;7795;47.986;11.868;2022-10-31T07:27:46;2.50;;;1.70;;
15393;SDS011;7795;47.986;11.868;2022-10-31T07:30:12;7.57;;;2.77;;
15393;SDS011;7795;47.986;11.868;2022-10-31T07:32:40;11.53;;;5.03;;
15393;SDS011;7795;47.986;11.868;2022-10-31T07:35:07;13.07;;;5.63;;
15393;SDS011;7795;47.986;11.868;2022-10-31T07:37:33;16.83;;;6.37;;
15393;SDS011;7795;47.986;11.868;2022-10-31T07:39:59;14.53;;;8.40;;
15393;SDS011;7795;47.986;11.868;2022-10-31T07:42:25;6.73;;;6.03;;
15393;SDS011;7795;47.986;11.868;2022-10-31T07:44:51;8.60;;;4.53;;
15393;SDS011;7795;47.986;11.868;2022-10-31T07:47:16;8.03;;;3.90;;
15393;SDS011;7795;47.986;11.868;2022-10-31T07:49:43;11.17;;;4.07;;
15393;SDS011;7795;47.986;11.868;2022-10-31T07:52:09;4.97;;;2.97;;
15393;SDS011;7795;47.986;11.868;2022-10-31T07:54:35;7.90;;;2.87;;
15393;SDS011;7795;47.986;11.868;2022-10-31T07:57:01;6.40;;;3.30;;
15393;SDS011;7795;47.986;11.868;2022-10-31T07:59:26;8.83;;;3.00;;
15393;SDS011;7795;47.986;11.868;2022-10-31T08:01:52;8.73;;;3.50;;
15393;SDS011;7795;47.986;11.868;2022-10-31T08:04:18;12.87;;;4.57;;
15393;SDS011;7795;47.986;11.868;2022-10-31T08:06:45;17.27;;;4.70;;
15393;SDS011;7795;47.986;11.868;2022-10-31T08:09:13;6.80;;;3.60;;
15393;SDS011;7795;47.986;11.868;2022-10-31T08:11:39;6.93;;;3.33;;
15393;SDS011;7795;47.986;11.868;2022-10-31T08:14:04;8.73;;;4.73;;
15393;SDS011;7795;47.986;11.868;2022-10-31T08:16:30;5.90;;;3.63;;
15393;SDS011;7795;47.986;11.868;2022-10-31T08:18:56;10.63;;;5.00;;
15393;SDS011;7795;47.986;11.868;2022-10-31T08:21:22;18.70;;;5.60;;
15393;SDS011;7795;47.986;11.868;2022-10-31T08:23:49;20.13;;;6.40;;
15393;SDS011;7795;47.986;11.868;2022-10-31T08:26:15;19.37;;;5.93;;
15393;SDS011;7795;47.986;11.868;2022-10-31T08:28:40;12.57;;;5.10;;
15393;SDS011;7795;47.986;11.868;2022-10-31T08:31:06;10.43;;;4.57;;
15393;SDS011;7795;47.986;11.868;2022-10-31T08:33:32;16.47;;;4.50;;
15393;SDS011;7795;47.986;11.868;2022-10-31T08:35:58;13.43;;;4.00;;
15393;SDS011;7795;47.986;11.868;2022-10-31T08:38:23;20.27;;;4.93;;
15393;SDS011;7795;47.986;11.868;2022-10-31T08:40:50;10.23;;;3.63;;
15393;SDS011;7795;47.986;11.868;2022-10-31T08:43:19;10.50;;;3.83;;
15393;SDS011;7795;47.986;11.868;2022-10-31T08:45:47;5.23;;;3.10;;
15393;SDS011;7795;47.986;11.868;2022-10-31T08:48:14;11.27;;;4.13;;
15393;SDS011;7795;47.986;11.868;2022-10-31T08:50:43;9.97;;;3.03;;
15393;SDS011;7795;47.986;11.868;2022-10-31T08:53:11;7.00;;;3.00;;
15393;SDS011;7795;47.986;11.868;2022-10-31T08:55:38;8.40;;;3.70;;
15393;SDS011;7795;47.986;11.868;2022-10-31T08:58:09;9.60;;;3.23;;
15393;SDS011;7795;47.986;11.868;2022-10-31T09:00:36;18.10;;;4.40;;
15393;SDS011;7795;47.986;11.868;2022-10-31T09:03:03;6.87;;;2.60;;
15393;SDS011;7795;47.986;11.868;2022-10-31T09:05:30;5.40;;;3.03;;
15393;SDS011;7795;47.986;11.868;2022-10-31T09:07:57;7.13;;;3.20;;
15393;SDS011;7795;47.986;11.868;2022-10-31T09:10:23;11.87;;;3.57;;
15393;SDS011;7795;47.986;11.868;2022-10-31T09:12:54;7.00;;;3.27;;
15393;SDS011;7795;47.986;11.868;2022-10-31T09:15:21;8.50;;;3.13;;
15393;SDS011;7795;47.986;11.868;2022-10-31T09:17:47;12.07;;;3.67;;
15393;SDS011;7795;47.986;11.868;2022-10-31T09:20:13;8.60;;;3.30;;
15393;SDS011;7795;47.986;11.868;2022-10-31T09:22:39;10.77;;;3.67;;
15393;SDS011;7795;47.986;11.868;2022-10-31T09:25:04;11.13;;;3.77;;
15393;SDS011;7795;47.986;11.868;2022-10-31T09:27:30;6.57;;;2.63;;
15393;SDS011;7795;47.986;11.868;2022-10-31T09:29:56;12.83;;;3.90;;
15393;SDS011;7795;47.986;11.868;2022-10-31T09:32:23;7.50;;;3.17;;
15393;SDS011;7795;47.986;11.868;2022-10-31T09:34:49;8.20;;;2.73;;
15393;SDS011;7795;47.986;11.868;2022-10-31T09:37:15;6.50;;;2.93;;
15393;SDS011;7795;47.986;11.868;2022-10-31T09:39:40;14.13;;;4.13;;
15393;SDS011;7795;47.986;11.868;2022-10-31T09:42:16;7.70;;;2.77;;
15393;SDS011;7795;47.986;11.868;2022-10-31T09:45:03;8.10;;;2.50;;
15393;SDS011;7795;47.986;11.868;2022-10-31T09:47:40;6.90;;;2.70;;
15393;SDS011;7795;47.986;11.868;2022-10-31T09:50:17;8.20;;;3.10;;
15393;SDS011;7795;47.986;11.868;2022-10-31T09:52:48;6.70;;;2.83;;
15393;SDS011;7795;47.986;11.868;2022-10-31T09:55:24;7.10;;;2.40;;
15393;SDS011;7795;47.986;11.868;2022-10-31T09:57:55;7.23;;;2.70;;
15393;SDS011;7795;47.986;11.868;2022-10-31T10:00:24;5.13;;;2.30;;
15393;SDS011;7795;47.986;11.868;2022-10-31T10:02:52;5.83;;;2.67;;
15393;SDS011;7795;47.986;11.868;2022-10-31T10:05:24;9.43;;;3.37;;
15393;SDS011;7795;47.986;11.868;2022-10-31T10:07:59;9.50;;;2.93;;
15393;SDS011;7795;47.986;11.868;2022-10-31T10:10:36;10.80;;;2.97;;
15393;SDS011;7795;47.986;11.868;2022-10-31T10:13:30;6.03;;;3.13;;
15393;SDS011;7795;47.986;11.868;2022-10-31T10:16:03;6.00;;;2.50;;
15393;SDS011;7795;47.986;11.868;2022-10-31T10:18:44;7.33;;;2.93;;
15393;SDS011;7795;47.986;11.868;2022-10-31T10:21:32;11.23;;;3.13;;
15393;SDS011;7795;47.986;11.868;2022-10-31T10:24:17;7.50;;;2.93;;
15393;SDS011;7795;47.986;11.868;2022-10-31T10:26:59;6.43;;;2.47;;
15393;SDS011;7795;47.986;11.868;2022-10-31T10:29:34;9.70;;;3.13;;
15393;SDS011;7795;47.986;11.868;2022-10-31T10:32:05;8.53;;;2.70;;
15393;SDS011;7795;47.986;11.868;2022-10-31T10:34:41;6.23;;;2.70;;
15393;SDS011;7795;47.986;11.868;2022-10-31T10:37:13;10.50;;;3.00;;
15393;SDS011;7795;47.986;11.868;2022-10-31T10:39:47;10.63;;;3.57;;
15393;SDS011;7795;47.986;11.868;2022-10-31T10:42:16;5.40;;;3.03;;
15393;SDS011;7795;47.986;11.868;2022-10-31T10:45:07;4.10;;;2.60;;
15393;SDS011;7795;47.986;11.868;2022-10-31T10:47:59;7.97;;;2.90;;
15393;SDS011;7795;47.986;11.868;2022-10-31T10:50:36;14.20;;;5.13;;
15393;SDS011;7795;47.986;11.868;2022-10-31T10:53:06;9.50;;;3.20;;
15393;SDS011;7795;47.986;11.868;2022-10-31T10:55:47;6.43;;;3.03;;
15393;SDS011;7795;47.986;11.868;2022-10-31T10:58:19;6.80;;;2.47;;
15393;SDS011;7795;47.986;11.868;2022-10-31T11:00:45;12.10;;;2.90;;
15393;SDS011;7795;47.986;11.868;2022-10-31T11:03:12;6.27;;;2.70;;
15393;SDS011;7795;47.986;11.868;2022-10-31T11:05:41;6.60;;;2.30;;
15393;SDS011;7795;47.986;11.868;2022-10-31T11:08:22;6.43;;;2.77;;
15393;SDS011;7795;47.986;11.868;2022-10-31T11:10:55;9.20;;;2.70;;
15393;SDS011;7795;47.986;11.868;2022-10-31T11:13:23;8.43;;;3.10;;
15393;SDS011;7795;47.986;11.868;2022-10-31T11:15:50;8.17;;;3.13;;
15393;SDS011;7795;47.986;11.868;2022-10-31T11:18:21;15.27;;;2.87;;
15393;SDS011;7795;47.986;11.868;2022-10-31T11:20:52;8.60;;;2.60;;
15393;SDS011;7795;47.986;11.868;2022-10-31T11:23:19;9.07;;;2.87;;
15393;SDS011;7795;47.986;11.868;2022-10-31T11:25:49;7.00;;;2.77;;
15393;SDS011;7795;47.986;11.868;2022-10-31T11:28:17;8.00;;;3.20;;
15393;SDS011;7795;47.986;11.868;2022-10-31T11:30:44;10.53;;;3.03;;
15393;SDS011;7795;47.986;11.868;2022-10-31T11:33:14;7.63;;;2.73;;
15393;SDS011;7795;47.986;11.868;2022-10-31T11:35:43;5.90;;;2.80;;
15393;SDS011;7795;47.986;11.868;2022-10-31T11:38:13;5.63;;;2.63;;
15393;SDS011;7795;47.986;11.868;2022-10-31T11:40:50;7.63;;;2.87;;
15393;SDS011;7795;47.986;11.868;2022-10-31T11:43:18;9.20;;;3.07;;
15393;SDS011;7795;47.986;11.868;2022-10-31T11:45:44;4.20;;;2.80;;
15393;SDS011;7795;47.986;11.868;2022-10-31T11:48:15;7.10;;;2.73;;
15393;SDS011;7795;47.986;11.868;2022-10-31T11:50:42;7.50;;;2.90;;
15393;SDS011;7795;47.986;11.868;2022-10-31T11:53:17;7.90;;;3.77;;
15393;SDS011;7795;47.986;11.868;2022-10-31T11:55:45;9.37;;;3.33;;
15393;SDS011;7795;47.986;11.868;2022-10-31T11:58:21;10.50;;;3.80;;
15393;SDS011;7795;47.986;11.868;2022-10-31T12:00:49;8.30;;;3.07;;
15393;SDS011;7795;47.986;11.868;2022-10-31T12:03:18;7.43;;;3.27;;
15393;SDS011;7795;47.986;11.868;2022-10-31T12:05:53;8.93;;;3.33;;
15393;SDS011;7795;47.986;11.868;2022-10-31T12:08:24;10.33;;;3.30;;
15393;SDS011;7795;47.986;11.868;2022-10-31T12:10:56;12.90;;;3.70;;
15393;SDS011;7795;47.986;11.868;2022-10-31T12:13:32;8.87;;;3.70;;
15393;SDS011;7795;47.986;11.868;2022-10-31T12:16:00;7.27;;;3.67;;
15393;SDS011;7795;47.986;11.868;2022-10-31T12:18:36;12.27;;;4.10;;
15393;SDS011;7795;47.986;11.868;2022-10-31T12:21:23;7.43;;;3.73;;
15393;SDS011;7795;47.986;11.868;2022-10-31T12:24:11;7.60;;;3.57;;
15393;SDS011;7795;47.986;11.868;2022-10-31T12:26:45;9.43;;;3.17;;
15393;SDS011;7795;47.986;11.868;2022-10-31T12:29:23;8.10;;;3.40;;
15393;SDS011;7795;47.986;11.868;2022-10-31T12:32:04;6.67;;;2.97;;
15393;SDS011;7795;47.986;11.868;2022-10-31T12:34:48;8.60;;;3.07;;
15393;SDS011;7795;47.986;11.868;2022-10-31T12:37:30;6.60;;;3.50;;
15393;SDS011;7795;47.986;11.868;2022-10-31T12:40:23;6.70;;;3.70;;
15393;SDS011;7795;47.986;11.868;2022-10-31T12:43:05;6.00;;;3.53;;
15393;SDS011;7795;47.986;11.868;2022-10-31T12:45:47;7.50;;;3.60;;
15393;SDS011;7795;47.986;11.868;2022-10-31T12:48:24;13.17;;;3.33;;
15393;SDS011;7795;47.986;11.868;2022-10-31T12:51:08;7.80;;;3.40;;
15393;SDS011;7795;47.986;11.868;2022-10-31T12:53:44;9.87;;;4.17;;
15393;SDS011;7795;47.986;11.868;2022-10-31T12:56:22;13.90;;;4.40;;
15393;SDS011;7795;47.986;11.868;2022-10-31T12:58:55;11.27;;;4.20;;
15393;SDS011;7795;47.986;11.868;2022-10-31T13:01:27;9.67;;;3.60;;
15393;SDS011;7795;47.986;11.868;2022-10-31T13:04:00;7.00;;;3.33;;
15393;SDS011;7795;47.986;11.868;2022-10-31T13:06:29;10.50;;;3.43;;
15393;SDS011;7795;47.986;11.868;2022-10-31T13:08:59;7.90;;;3.23;;
15393;SDS011;7795;47.986;11.868;2022-10-31T13:11:33;7.17;;;3.33;;
15393;SDS011;7795;47.986;11.868;2022-10-31T13:14:04;9.87;;;3.53;;
15393;SDS011;7795;47.986;11.868;2022-10-31T13:16:33;8.83;;;3.30;;
15393;SDS011;7795;47.986;11.868;2022-10-31T13:19:03;14.17;;;4.30;;
15393;SDS011;7795;47.986;11.868;2022-10-31T13:21:36;11.27;;;3.90;;
15393;SDS011;7795;47.986;11.868;2022-10-31T13:24:08;7.30;;;3.43;;
15393;SDS011;7795;47.986;11.868;2022-10-31T13:26:42;9.07;;;3.43;;
15393;SDS011;7795;47.986;11.868;2022-10-31T13:29:13;6.57;;;3.87;;
15393;SDS011;7795;47.986;11.868;2022-10-31T13:31:43;12.73;;;4.27;;
15393;SDS011;7795;47.986;11.868;2022-10-31T13:34:12;8.37;;;3.00;;
15393;SDS011;7795;47.986;11.868;2022-10-31T13:36:45;7.77;;;3.10;;
15393;SDS011;7795;47.986;11.868;2022-10-31T13:39:19;5.50;;;2.93;;
15393;SDS011;7795;47.986;11.868;2022-10-31T13:41:52;8.43;;;3.43;;
15393;SDS011;7795;47.986;11.868;2022-10-31T13:44:25;5.60;;;3.00;;
15393;SDS011;7795;47.986;11.868;2022-10-31T13:46:52;10.63;;;3.50;;
15393;SDS011;7795;47.986;11.868;2022-10-31T13:49:21;9.43;;;3.60;;
15393;SDS011;7795;47.986;11.868;2022-10-31T13:51:50;11.90;;;4.23;;
15393;SDS011;7795;47.986;11.868;2022-10-31T13:54:21;10.93;;;3.73;;
15393;SDS011;7795;47.986;11.868;2022-10-31T13:56:48;9.07;;;4.17;;
15393;SDS011;7795;47.986;11.868;2022-10-31T13:59:18;6.07;;;3.00;;
15393;SDS011;7795;47.986;11.868;2022-10-31T14:01:46;6.70;;;3.43;;
15393;SDS011;7795;47.986;11.868;2022-10-31T14:04:15;6.23;;;3.77;;
15393;SDS011;7795;47.986;11.868;2022-10-31T14:06:45;7.97;;;3.60;;
15393;SDS011;7795;47.986;11.868;2022-10-31T14:09:22;10.70;;;4.07;;
15393;SDS011;7795;47.986;11.868;2022-10-31T14:11:57;5.70;;;3.30;;
15393;SDS011;7795;47.986;11.868;2022-10-31T14:14:32;9.73;;;4.87;;
15393;SDS011;7795;47.986;11.868;2022-10-31T14:17:00;6.17;;;3.40;;
15393;SDS011;7795;47.986;11.868;2022-10-31T14:19:27;8.43;;;3.70;;
15393;SDS011;7795;47.986;11.868;2022-10-31T14:21:53;7.83;;;3.80;;
15393;SDS011;7795;47.986;11.868;2022-10-31T14:24:32;7.53;;;3.43;;
15393;SDS011;7795;47.986;11.868;2022-10-31T14:27:00;7.57;;;3.23;;
15393;SDS011;7795;47.986;11.868;2022-10-31T14:29:28;16.33;;;4.30;;
15393;SDS011;7795;47.986;11.868;2022-10-31T14:32:01;7.43;;;3.57;;
15393;SDS011;7795;47.986;11.868;2022-10-31T14:34:37;8.13;;;3.70;;
15393;SDS011;7795;47.986;11.868;2022-10-31T14:37:14;7.13;;;3.27;;
15393;SDS011;7795;47.986;11.868;2022-10-31T14:39:53;11.63;;;4.80;;
15393;SDS011;7795;47.986;11.868;2022-10-31T14:42:36;11.10;;;3.73;;
15393;SDS011;7795;47.986;11.868;2022-10-31T14:45:27;9.37;;;4.07;;
15393;SDS011;7795;47.986;11.868;2022-10-31T14:48:03;7.77;;;4.03;;
15393;SDS011;7795;47.986;11.868;2022-10-31T14:50:39;16.43;;;4.63;;
15393;SDS011;7795;47.986;11.868;2022-10-31T14:53:12;16.07;;;5.07;;
15393;SDS011;7795;47.986;11.868;2022-10-31T14:55:44;13.53;;;5.53;;
15393;SDS011;7795;47.986;11.868;2022-10-31T14:58:15;12.60;;;4.97;;
15393;SDS011;7795;47.986;11.868;2022-10-31T15:00:50;11.47;;;4.50;;
15393;SDS011;7795;47.986;11.868;2022-10-31T15:03:21;12.00;;;5.03;;